createdAt,value
2023-05-13T00:00:09.321Z,16.99
2023-05-13T00:01:09.325Z,16.97
2023-05-13T00:02:09.327Z,16.99
2023-05-13T00:03:09.405Z,16.97
2023-05-13T00:04:09.318Z,16.94
2023-05-13T00:05:09.311Z,16.94
2023-05-13T00:06:09.360Z,16.89
2023-05-13T00:07:09.312Z,16.90
2023-05-13T00:08:09.329Z,16.86
2023-05-13T00:09:09.366Z,16.94
2023-05-13T00:10:09.316Z,16.93
2023-05-13T00:11:09.313Z,16.84
2023-05-13T00:12:09.304Z,16.78
2023-05-13T00:13:09.302Z,16.94
2023-05-13T00:14:09.299Z,16.84
2023-05-13T00:15:09.308Z,16.90
2023-05-13T00:16:09.333Z,16.79
2023-05-13T00:17:09.308Z,16.76
2023-05-13T00:18:09.297Z,16.78
2023-05-13T00:19:09.413Z,16.76
2023-05-13T00:20:09.292Z,16.68
2023-05-13T00:21:09.316Z,16.79
2023-05-13T00:22:09.304Z,16.72
2023-05-13T00:23:09.327Z,16.68
2023-05-13T00:24:09.304Z,16.72
2023-05-13T00:25:09.294Z,16.68
2023-05-13T00:26:09.289Z,16.65
2023-05-13T00:27:09.320Z,16.75
2023-05-13T00:28:09.292Z,16.71
2023-05-13T00:29:09.290Z,16.68
2023-05-13T00:30:09.290Z,16.71
2023-05-13T00:31:09.289Z,16.68
2023-05-13T00:32:09.309Z,16.65
2023-05-13T00:33:09.289Z,16.60
2023-05-13T00:34:09.282Z,16.61
2023-05-13T00:35:09.312Z,16.58
2023-05-13T00:36:09.296Z,16.56
2023-05-13T00:37:09.285Z,16.57
2023-05-13T00:38:09.298Z,16.58
2023-05-13T00:39:09.313Z,16.56
2023-05-13T00:40:09.277Z,16.58
2023-05-13T00:41:09.288Z,16.58
2023-05-13T00:42:09.275Z,16.53
2023-05-13T00:43:09.277Z,16.54
2023-05-13T00:44:09.272Z,16.49
2023-05-13T00:45:09.298Z,16.50
2023-05-13T00:46:09.326Z,16.47
2023-05-13T00:47:09.280Z,16.47
2023-05-13T00:48:09.291Z,16.31
2023-05-13T00:49:09.271Z,16.32
2023-05-13T00:50:09.255Z,16.33
2023-05-13T00:51:09.267Z,16.33
2023-05-13T00:52:09.264Z,16.38
2023-05-13T00:53:09.285Z,16.33
2023-05-13T00:54:09.269Z,16.41
2023-05-13T00:55:09.281Z,16.33
2023-05-13T00:56:09.274Z,16.33
2023-05-13T00:57:09.270Z,16.28
2023-05-13T00:58:09.247Z,16.35
2023-05-13T00:59:09.261Z,16.23
2023-05-13T01:00:09.283Z,16.33
2023-05-13T01:01:09.343Z,16.23
2023-05-13T01:02:09.310Z,16.21
2023-05-13T01:03:09.291Z,16.21
2023-05-13T01:04:09.246Z,16.24
2023-05-13T01:05:09.251Z,16.20
2023-05-13T01:06:09.242Z,16.23
2023-05-13T01:07:09.257Z,16.35
2023-05-13T01:08:09.238Z,16.24
2023-05-13T01:09:09.250Z,16.26
2023-05-13T01:10:09.267Z,16.23
2023-05-13T01:11:09.247Z,16.17
2023-05-13T01:12:09.266Z,16.21
2023-05-13T01:13:09.237Z,16.21
2023-05-13T01:14:09.268Z,16.16
2023-05-13T01:15:09.277Z,16.12
2023-05-13T01:16:09.256Z,16.12
2023-05-13T01:17:09.274Z,16.13
2023-05-13T01:18:09.282Z,16.02
2023-05-13T01:19:09.369Z,16.10
2023-05-13T01:20:09.228Z,16.09
2023-05-13T01:21:09.243Z,16.01
2023-05-13T01:22:09.221Z,16.01
2023-05-13T01:23:09.306Z,16.04
2023-05-13T01:24:09.256Z,16.04
2023-05-13T01:25:09.228Z,16.09
2023-05-13T01:26:09.240Z,15.98
2023-05-13T01:27:09.222Z,15.95
2023-05-13T01:28:09.237Z,16.02
2023-05-13T01:29:09.257Z,16.05
2023-05-13T01:30:09.262Z,15.97
2023-05-13T01:31:09.245Z,15.97
2023-05-13T01:32:09.413Z,15.97
2023-05-13T01:33:09.299Z,16.01
2023-05-13T01:34:09.246Z,15.95
2023-05-13T01:35:09.219Z,15.97
2023-05-13T01:36:09.229Z,16.01
2023-05-13T01:37:09.312Z,15.97
2023-05-13T01:38:09.212Z,15.91
2023-05-13T01:39:09.277Z,15.91
2023-05-13T01:40:20.478Z,15.92
2023-05-13T01:41:09.222Z,16.00
2023-05-13T01:42:09.284Z,15.98
2023-05-13T01:43:09.268Z,15.97
2023-05-13T01:44:09.196Z,16.02
2023-05-13T01:45:09.192Z,15.97
2023-05-13T01:46:09.276Z,15.98
2023-05-13T01:47:09.193Z,16.01
2023-05-13T01:48:09.182Z,15.98
2023-05-13T01:49:09.203Z,15.94
2023-05-13T01:50:09.197Z,15.95
2023-05-13T01:51:09.229Z,16.02
2023-05-13T01:52:09.213Z,15.98
2023-05-13T01:53:09.189Z,15.91
2023-05-13T01:54:09.177Z,15.98
2023-05-13T01:55:09.184Z,15.92
2023-05-13T01:56:09.198Z,15.97
2023-05-13T01:57:09.173Z,15.90
2023-05-13T01:58:09.178Z,15.90
2023-05-13T01:59:09.173Z,15.90
2023-05-13T02:00:09.181Z,15.84
2023-05-13T02:01:09.209Z,15.92
2023-05-13T02:02:09.218Z,15.90
2023-05-13T02:03:09.265Z,15.90
2023-05-13T02:04:09.251Z,15.88
2023-05-13T02:05:09.220Z,15.90
2023-05-13T02:06:09.179Z,15.86
2023-05-13T02:07:09.350Z,15.95
2023-05-13T02:08:09.175Z,15.92
2023-05-13T02:09:09.187Z,15.84
2023-05-13T02:10:09.166Z,15.88
2023-05-13T02:11:09.174Z,15.90
2023-05-13T02:12:09.183Z,15.76
2023-05-13T02:13:09.231Z,15.80
2023-05-13T02:14:09.150Z,15.79
2023-05-13T02:15:09.167Z,15.82
2023-05-13T02:16:09.175Z,15.80
2023-05-13T02:17:09.143Z,15.80
2023-05-13T02:18:09.308Z,15.86
2023-05-13T02:19:09.243Z,15.79
2023-05-13T02:20:09.213Z,15.79
2023-05-13T02:21:09.145Z,15.77
2023-05-13T02:22:09.148Z,15.73
2023-05-13T02:23:09.139Z,15.76
2023-05-13T02:24:09.170Z,15.72
2023-05-13T02:25:09.137Z,15.79
2023-05-13T02:26:09.130Z,15.76
2023-05-13T02:27:09.152Z,15.76
2023-05-13T02:28:09.128Z,15.59
2023-05-13T02:29:09.171Z,15.61
2023-05-13T02:30:09.125Z,15.65
2023-05-13T02:31:09.130Z,15.64
2023-05-13T02:32:09.229Z,15.57
2023-05-13T02:33:09.175Z,15.61
2023-05-13T02:34:09.142Z,15.61
2023-05-13T02:35:09.126Z,15.62
2023-05-13T02:36:09.125Z,15.57
2023-05-13T02:37:09.120Z,15.62
2023-05-13T02:38:09.118Z,15.65
2023-05-13T02:39:09.112Z,15.64
2023-05-13T02:40:09.116Z,15.65
2023-05-13T02:41:09.115Z,15.57
2023-05-13T02:42:09.176Z,15.58
2023-05-13T02:43:09.115Z,15.64
2023-05-13T02:44:09.108Z,15.64
2023-05-13T02:45:09.113Z,15.62
2023-05-13T02:46:09.161Z,15.67
2023-05-13T02:47:09.114Z,15.58
2023-05-13T02:48:09.116Z,15.67
2023-05-13T02:49:09.102Z,15.59
2023-05-13T02:50:09.096Z,15.52
2023-05-13T02:51:09.097Z,15.55
2023-05-13T02:52:09.148Z,15.49
2023-05-13T02:53:09.113Z,15.54
2023-05-13T02:54:09.086Z,15.47
2023-05-13T02:55:09.117Z,15.44
2023-05-13T02:56:09.090Z,15.47
2023-05-13T02:57:09.115Z,15.51
2023-05-13T02:58:09.109Z,15.40
2023-05-13T02:59:09.098Z,15.44
2023-05-13T03:00:09.085Z,15.35
2023-05-13T03:01:09.098Z,15.37
2023-05-13T03:02:09.098Z,15.40
2023-05-13T03:03:09.170Z,15.36
2023-05-13T03:04:09.078Z,15.39
2023-05-13T03:05:09.139Z,15.25
2023-05-13T03:06:09.082Z,15.29
2023-05-13T03:07:09.076Z,15.31
2023-05-13T03:08:09.097Z,15.28
2023-05-13T03:09:09.099Z,15.27
2023-05-13T03:10:16.238Z,15.31
2023-05-13T03:12:13.083Z,15.28
2023-05-13T03:13:13.063Z,15.33
2023-05-13T03:15:17.130Z,15.36
2023-05-13T03:16:17.172Z,15.29
2023-05-13T03:17:17.088Z,15.31
2023-05-13T03:18:17.093Z,15.29
2023-05-13T03:19:17.152Z,15.27
2023-05-13T03:20:17.070Z,15.27
2023-05-13T03:21:17.066Z,15.28
2023-05-13T03:22:17.066Z,15.25
2023-05-13T03:23:17.051Z,15.27
2023-05-13T03:24:17.065Z,15.21
2023-05-13T03:25:17.057Z,15.17
2023-05-13T03:26:17.052Z,15.27
2023-05-13T03:27:17.047Z,15.19
2023-05-13T03:28:17.061Z,15.10
2023-05-13T03:29:17.052Z,15.03
2023-05-13T03:30:17.043Z,15.17
2023-05-13T03:31:17.163Z,15.14
2023-05-13T03:32:17.049Z,15.21
2023-05-13T03:33:17.042Z,15.10
2023-05-13T03:34:17.044Z,15.14
2023-05-13T03:35:17.039Z,15.11
2023-05-13T03:36:17.029Z,15.10
2023-05-13T03:37:17.041Z,15.11
2023-05-13T03:38:17.032Z,15.15
2023-05-13T03:39:17.025Z,15.06
2023-05-13T03:40:17.029Z,15.11
2023-05-13T03:41:17.018Z,15.15
2023-05-13T03:42:17.019Z,15.14
2023-05-13T03:43:17.020Z,15.11
2023-05-13T03:44:17.020Z,15.06
2023-05-13T03:45:17.029Z,14.99
2023-05-13T03:46:17.035Z,15.00
2023-05-13T03:47:17.026Z,15.00
2023-05-13T03:48:17.051Z,14.96
2023-05-13T03:49:17.011Z,15.03
2023-05-13T03:50:17.004Z,14.94
2023-05-13T03:51:17.000Z,14.94
2023-05-13T03:52:17.013Z,14.94
2023-05-13T03:53:17.003Z,14.88
2023-05-13T03:54:17.000Z,14.96
2023-05-13T03:55:16.994Z,14.91
2023-05-13T03:56:16.996Z,14.88
2023-05-13T03:57:16.990Z,14.86
2023-05-13T03:58:16.995Z,14.88
2023-05-13T03:59:16.986Z,14.85
2023-05-13T04:00:16.990Z,14.81
2023-05-13T04:01:17.018Z,14.85
2023-05-13T04:02:17.021Z,14.79
2023-05-13T04:03:17.020Z,14.81
2023-05-13T04:04:17.008Z,14.85
2023-05-13T04:05:17.053Z,14.85
2023-05-13T04:06:16.983Z,14.94
2023-05-13T04:07:16.992Z,14.85
2023-05-13T04:08:16.970Z,14.89
2023-05-13T04:09:17.034Z,14.91
2023-05-13T04:10:16.991Z,15.03
2023-05-13T04:11:16.997Z,14.92
2023-05-13T04:12:16.980Z,14.92
2023-05-13T04:13:16.984Z,14.81
2023-05-13T04:14:17.004Z,14.86
2023-05-13T04:15:16.975Z,14.84
2023-05-13T04:16:16.966Z,14.81
2023-05-13T04:17:16.984Z,14.69
2023-05-13T04:18:16.959Z,14.68
2023-05-13T04:19:17.020Z,14.84
2023-05-13T04:20:16.946Z,14.84
2023-05-13T04:21:16.952Z,14.84
2023-05-13T04:22:16.948Z,14.84
2023-05-13T04:23:16.953Z,14.84
2023-05-13T04:24:16.951Z,14.86
2023-05-13T04:25:16.951Z,14.84
2023-05-13T04:26:16.958Z,14.81
2023-05-13T04:27:16.962Z,14.78
2023-05-13T04:28:16.938Z,14.84
2023-05-13T04:29:16.948Z,14.82
2023-05-13T04:30:16.927Z,14.81
2023-05-13T04:31:16.977Z,14.68
2023-05-13T04:32:16.922Z,14.84
2023-05-13T04:33:16.925Z,14.86
2023-05-13T04:34:16.924Z,14.82
2023-05-13T04:35:16.922Z,14.84
2023-05-13T04:36:16.920Z,14.79
2023-05-13T04:37:16.922Z,14.78
2023-05-13T04:38:16.916Z,14.84
2023-05-13T04:39:16.944Z,14.89
2023-05-13T04:40:16.906Z,14.82
2023-05-13T04:41:16.914Z,14.86
2023-05-13T04:42:16.928Z,14.92
2023-05-13T04:43:16.903Z,14.84
2023-05-13T04:44:16.897Z,14.92
2023-05-13T04:45:16.907Z,14.89
2023-05-13T04:46:16.934Z,14.92
2023-05-13T04:47:16.905Z,14.97
2023-05-13T04:48:16.915Z,15.00
2023-05-13T04:49:16.901Z,14.94
2023-05-13T04:50:16.919Z,15.03
2023-05-13T04:51:16.910Z,14.88
2023-05-13T04:52:16.898Z,14.96
2023-05-13T04:53:16.904Z,14.96
2023-05-13T04:54:16.900Z,14.89
2023-05-13T04:55:16.883Z,14.92
2023-05-13T04:56:16.881Z,14.91
2023-05-13T04:57:16.892Z,15.04
2023-05-13T04:58:16.872Z,14.96
2023-05-13T04:59:16.908Z,14.97
2023-05-13T05:00:16.883Z,14.97
2023-05-13T05:01:17.009Z,15.03
2023-05-13T05:02:16.886Z,15.07
2023-05-13T05:03:16.893Z,15.03
2023-05-13T05:04:16.969Z,15.02
2023-05-13T05:05:18.415Z,15.04
2023-05-13T05:06:16.869Z,15.06
2023-05-13T05:07:16.864Z,15.09
2023-05-13T05:08:16.861Z,15.14
2023-05-13T05:09:16.875Z,15.14
2023-05-13T05:10:16.891Z,15.10
2023-05-13T05:11:16.886Z,15.06
2023-05-13T05:12:16.876Z,15.03
2023-05-13T05:13:16.861Z,15.11
2023-05-13T05:14:16.854Z,15.11
2023-05-13T05:15:16.851Z,15.09
2023-05-13T05:16:16.868Z,15.14
2023-05-13T05:17:16.878Z,15.11
2023-05-13T05:18:16.887Z,15.24
2023-05-13T05:19:16.872Z,15.25
2023-05-13T05:20:16.862Z,15.27
2023-05-13T05:21:16.844Z,15.29
2023-05-13T05:22:16.846Z,15.29
2023-05-13T05:23:16.843Z,15.25
2023-05-13T05:24:16.843Z,15.31
2023-05-13T05:25:16.874Z,15.35
2023-05-13T05:26:16.834Z,15.29
2023-05-13T05:27:16.847Z,15.42
2023-05-13T05:28:16.849Z,15.43
2023-05-13T05:29:16.848Z,15.46
2023-05-13T05:30:16.822Z,15.57
2023-05-13T05:31:16.858Z,15.57
2023-05-13T05:32:16.888Z,15.65
2023-05-13T05:33:16.830Z,15.76
2023-05-13T05:34:16.844Z,15.80
2023-05-13T05:35:16.844Z,15.88
2023-05-13T05:36:16.827Z,16.04
2023-05-13T05:37:16.816Z,16.02
2023-05-13T05:38:16.820Z,16.21
2023-05-13T05:39:16.820Z,16.33
2023-05-13T05:40:16.832Z,16.57
2023-05-13T05:41:16.831Z,16.68
2023-05-13T05:42:16.945Z,16.68
2023-05-13T05:43:16.850Z,16.78
2023-05-13T05:44:16.830Z,16.81
2023-05-13T05:45:16.845Z,17.01
2023-05-13T05:46:16.863Z,17.05
2023-05-13T05:47:16.865Z,17.09
2023-05-13T05:48:16.895Z,17.16
2023-05-13T05:49:16.875Z,17.31
2023-05-13T05:50:16.885Z,17.49
2023-05-13T05:51:16.882Z,17.70
2023-05-13T05:52:16.893Z,17.83
2023-05-13T05:53:16.903Z,18.00
2023-05-13T05:54:16.899Z,18.08
2023-05-13T05:55:16.934Z,18.28
2023-05-13T05:56:16.924Z,18.35
2023-05-13T05:57:16.930Z,18.43
2023-05-13T05:58:16.971Z,18.63
2023-05-13T05:59:16.952Z,18.81
2023-05-13T06:00:16.972Z,18.90
2023-05-13T06:01:16.996Z,19.00
2023-05-13T06:02:17.052Z,19.07
2023-05-13T06:03:17.278Z,19.24
2023-05-13T06:04:17.167Z,19.26
2023-05-13T06:05:17.026Z,19.40
2023-05-13T06:06:17.028Z,19.55
2023-05-13T06:07:17.070Z,19.62
2023-05-13T06:08:17.052Z,19.71
2023-05-13T06:09:17.077Z,19.67
2023-05-13T06:10:17.073Z,19.70
2023-05-13T06:11:17.090Z,19.73
2023-05-13T06:12:17.102Z,19.91
2023-05-13T06:13:17.104Z,19.91
2023-05-13T06:14:17.132Z,20.03
2023-05-13T06:15:17.130Z,20.11
2023-05-13T06:16:17.172Z,20.22
2023-05-13T06:17:17.171Z,20.41
2023-05-13T06:18:17.166Z,20.48
2023-05-13T06:19:17.273Z,20.80
2023-05-13T06:20:17.202Z,20.97
2023-05-13T06:21:17.225Z,21.03
2023-05-13T06:22:17.227Z,21.12
2023-05-13T06:23:17.251Z,21.06
2023-05-13T06:24:17.291Z,21.07
2023-05-13T06:25:17.252Z,21.12
2023-05-13T06:26:17.280Z,21.17
2023-05-13T06:27:17.287Z,21.18
2023-05-13T06:28:17.313Z,21.22
2023-05-13T06:29:17.316Z,21.27
2023-05-13T06:30:17.353Z,21.43
2023-05-13T06:31:17.370Z,21.48
2023-05-13T06:32:17.370Z,21.62
2023-05-13T06:33:17.401Z,21.61
2023-05-13T06:34:17.383Z,21.69
2023-05-13T06:35:17.386Z,21.48
2023-05-13T06:36:17.411Z,21.66
2023-05-13T06:37:17.423Z,21.72
2023-05-13T06:38:17.437Z,21.83
2023-05-13T06:39:17.444Z,21.92
2023-05-13T06:40:17.477Z,22.04
2023-05-13T06:41:17.470Z,22.10
2023-05-13T06:42:17.515Z,22.28
2023-05-13T06:43:17.498Z,22.26
2023-05-13T06:44:17.536Z,22.33
2023-05-13T06:45:17.556Z,22.45
2023-05-13T06:46:17.546Z,22.50
2023-05-13T06:47:17.793Z,22.59
2023-05-13T06:48:17.587Z,22.53
2023-05-13T06:49:17.583Z,22.65
2023-05-13T06:50:17.627Z,22.70
2023-05-13T06:51:17.629Z,22.72
2023-05-13T06:52:17.660Z,22.69
2023-05-13T06:53:17.641Z,22.62
2023-05-13T06:54:17.682Z,22.69
2023-05-13T06:55:17.667Z,22.76
2023-05-13T06:56:17.695Z,22.73
2023-05-13T06:57:17.740Z,22.76
2023-05-13T06:58:17.725Z,22.66
2023-05-13T06:59:17.754Z,22.78
2023-05-13T07:00:17.762Z,22.72
2023-05-13T07:01:17.822Z,22.81
2023-05-13T07:02:17.784Z,22.98
2023-05-13T07:03:17.902Z,23.00
2023-05-13T07:04:17.845Z,23.06
2023-05-13T07:05:17.835Z,23.09
2023-05-13T07:06:17.846Z,23.08
2023-05-13T07:07:17.869Z,23.06
2023-05-13T07:08:17.905Z,23.12
2023-05-13T07:09:17.878Z,23.15
2023-05-13T07:10:17.903Z,23.09
2023-05-13T07:11:17.911Z,23.06
2023-05-13T07:12:17.931Z,23.06
2023-05-13T07:13:17.953Z,23.08
2023-05-13T07:14:18.009Z,23.13
2023-05-13T07:15:17.986Z,23.03
2023-05-13T07:16:18.026Z,22.98
2023-05-13T07:17:18.023Z,22.99
2023-05-13T07:18:18.100Z,23.06
2023-05-13T07:19:18.087Z,23.10
2023-05-13T07:20:18.076Z,23.13
2023-05-13T07:21:18.062Z,23.09
2023-05-13T07:22:18.086Z,23.12
2023-05-13T07:23:18.110Z,23.12
2023-05-13T07:24:18.117Z,23.17
2023-05-13T07:25:18.149Z,23.17
2023-05-13T07:26:18.158Z,23.20
2023-05-13T07:27:18.182Z,23.23
2023-05-13T07:28:18.177Z,23.20
2023-05-13T07:29:18.211Z,23.12
2023-05-13T07:30:18.221Z,23.24
2023-05-13T07:31:18.308Z,23.13
2023-05-13T07:32:18.278Z,23.09
2023-05-13T07:33:18.256Z,23.10
2023-05-13T07:34:18.280Z,23.08
2023-05-13T07:35:18.286Z,23.06
2023-05-13T07:36:18.315Z,23.03
2023-05-13T07:37:18.335Z,23.18
2023-05-13T07:38:18.345Z,23.13
2023-05-13T07:39:18.362Z,23.24
2023-05-13T07:40:18.397Z,23.24
2023-05-13T07:41:18.403Z,23.31
2023-05-13T07:42:18.406Z,23.34
2023-05-13T07:43:18.421Z,23.39
2023-05-13T07:44:18.434Z,23.40
2023-05-13T07:45:18.473Z,23.36
2023-05-13T07:46:18.484Z,23.34
2023-05-13T07:47:18.540Z,23.37
2023-05-13T07:48:18.496Z,23.40
2023-05-13T07:49:18.512Z,23.40
2023-05-13T07:50:18.550Z,23.34
2023-05-13T07:51:18.554Z,23.21
2023-05-13T07:52:18.575Z,23.21
2023-05-13T07:53:19.785Z,23.27
2023-05-13T07:54:18.790Z,23.31
2023-05-13T07:55:18.649Z,23.20
2023-05-13T07:56:18.650Z,23.21
2023-05-13T07:57:18.664Z,23.18
2023-05-13T07:58:18.700Z,23.10
2023-05-13T07:59:18.716Z,23.13
2023-05-13T08:00:18.726Z,23.09
2023-05-13T08:01:18.723Z,23.08
2023-05-13T08:02:18.815Z,23.00
2023-05-13T08:03:18.827Z,23.00
2023-05-13T08:04:18.898Z,22.84
2023-05-13T08:05:18.778Z,22.76
2023-05-13T08:06:18.786Z,22.70
2023-05-13T08:07:18.828Z,22.75
2023-05-13T08:08:18.810Z,22.80
2023-05-13T08:09:18.849Z,22.90
2023-05-13T08:10:18.859Z,23.02
2023-05-13T08:11:18.876Z,23.03
2023-05-13T08:12:18.874Z,23.10
2023-05-13T08:13:18.873Z,23.09
2023-05-13T08:14:18.889Z,23.10
2023-05-13T08:15:18.947Z,23.08
2023-05-13T08:16:18.957Z,23.12
2023-05-13T08:17:18.960Z,23.08
2023-05-13T08:18:19.041Z,23.06
2023-05-13T08:19:19.021Z,22.96
2023-05-13T08:20:18.993Z,22.94
2023-05-13T08:21:19.026Z,22.88
2023-05-13T08:22:19.002Z,22.87
2023-05-13T08:23:18.981Z,22.90
2023-05-13T08:24:19.012Z,22.75
2023-05-13T08:25:19.115Z,22.80
2023-05-13T08:26:19.010Z,22.76
2023-05-13T08:27:19.013Z,22.83
2023-05-13T08:28:19.023Z,22.85
2023-05-13T08:29:19.034Z,22.85
2023-05-13T08:30:19.041Z,22.83
2023-05-13T08:31:19.172Z,22.81
2023-05-13T08:32:19.338Z,22.76
2023-05-13T08:33:19.069Z,22.73
2023-05-13T08:34:19.108Z,22.83
2023-05-13T08:35:19.141Z,22.90
2023-05-13T08:36:19.089Z,22.90
2023-05-13T08:37:19.141Z,23.08
2023-05-13T08:38:19.177Z,23.10
2023-05-13T08:39:19.112Z,23.15
2023-05-13T08:40:19.132Z,23.10
2023-05-13T08:41:21.739Z,23.10
2023-05-13T08:42:19.166Z,23.10
2023-05-13T08:43:19.134Z,23.05
2023-05-13T08:44:19.175Z,22.99
2023-05-13T08:45:19.289Z,22.87
2023-05-13T08:46:19.191Z,22.76
2023-05-13T08:47:19.160Z,22.87
2023-05-13T08:48:19.168Z,22.87
2023-05-13T08:49:19.184Z,22.83
2023-05-13T08:50:19.181Z,22.78
2023-05-13T08:51:19.194Z,22.73
2023-05-13T08:52:19.198Z,22.85
2023-05-13T08:53:19.194Z,22.90
2023-05-13T08:54:20.009Z,22.94
2023-05-13T08:55:19.430Z,23.05
2023-05-13T08:56:19.235Z,23.03
2023-05-13T08:57:19.211Z,22.90
2023-05-13T08:58:19.237Z,22.80
2023-05-13T08:59:19.241Z,22.84
2023-05-13T09:00:21.255Z,22.83
2023-05-13T09:01:19.311Z,22.91
2023-05-13T09:02:19.250Z,22.94
2023-05-13T09:03:19.239Z,22.84
2023-05-13T09:04:19.250Z,22.91
2023-05-13T09:05:19.301Z,22.73
2023-05-13T09:06:19.259Z,22.59
2023-05-13T09:07:19.261Z,22.73
2023-05-13T09:08:19.280Z,22.80
2023-05-13T09:09:19.338Z,22.81
2023-05-13T09:10:19.327Z,22.93
2023-05-13T09:11:19.319Z,22.85
2023-05-13T09:12:28.085Z,22.88
2023-05-13T09:14:23.342Z,22.90
2023-05-13T09:15:23.506Z,22.91
2023-05-13T09:17:27.287Z,22.88
2023-05-13T09:18:27.385Z,22.83
2023-05-13T09:20:31.298Z,22.75
2023-05-13T09:21:31.296Z,22.69
2023-05-13T09:23:24.242Z,22.63
2023-05-13T09:24:24.207Z,22.57
2023-05-13T09:26:28.206Z,22.41
2023-05-13T09:27:28.195Z,22.47
2023-05-13T09:29:32.232Z,22.50
2023-05-13T09:30:32.216Z,22.51
2023-05-13T09:32:36.288Z,22.48
2023-05-13T09:33:36.237Z,22.45
2023-05-13T09:35:40.359Z,22.44
2023-05-13T09:36:40.288Z,22.30
2023-05-13T09:38:44.309Z,22.36
2023-05-13T09:39:44.260Z,22.47
2023-05-13T09:41:48.260Z,22.39
2023-05-13T09:42:48.283Z,22.50
2023-05-13T09:44:52.292Z,22.43
2023-05-13T09:45:52.270Z,22.45
2023-05-13T09:47:56.290Z,22.36
2023-05-13T09:48:57.073Z,22.36
2023-05-13T09:51:00.292Z,22.36
2023-05-13T09:52:00.278Z,22.36
2023-05-13T09:54:04.333Z,22.39
2023-05-13T09:55:04.286Z,22.38
2023-05-13T09:57:08.277Z,22.45
2023-05-13T09:58:08.267Z,22.45
2023-05-13T10:00:21.137Z,22.44
2023-05-13T10:01:12.295Z,22.55
2023-05-13T10:03:05.257Z,22.43
2023-05-13T10:04:05.265Z,22.44
2023-05-13T10:06:09.265Z,22.47
2023-05-13T10:07:09.279Z,22.43
2023-05-13T10:09:13.240Z,22.38
2023-05-13T10:10:13.258Z,22.32
2023-05-13T10:12:17.279Z,22.32
2023-05-13T10:13:17.303Z,22.30
2023-05-13T10:15:21.398Z,22.39
2023-05-13T10:16:21.247Z,22.28
2023-05-13T10:18:25.296Z,22.28
2023-05-13T10:19:25.204Z,22.14
2023-05-13T10:21:29.240Z,22.18
2023-05-13T10:22:29.229Z,22.15
2023-05-13T10:24:33.306Z,22.17
2023-05-13T10:25:33.216Z,22.11
2023-05-13T10:27:37.786Z,22.11
2023-05-13T10:28:37.218Z,22.18
2023-05-13T10:30:41.273Z,22.11
2023-05-13T10:31:41.290Z,22.13
2023-05-13T10:33:45.321Z,22.22
2023-05-13T10:34:45.302Z,22.17
2023-05-13T10:36:49.270Z,22.14
2023-05-13T10:37:49.287Z,22.15
2023-05-13T10:39:53.366Z,22.22
2023-05-13T10:40:53.353Z,22.23
2023-05-13T10:42:46.232Z,22.30
2023-05-13T10:43:46.194Z,22.32
2023-05-13T10:45:50.796Z,22.30
2023-05-13T10:46:50.688Z,22.39
2023-05-13T10:48:54.710Z,22.39
2023-05-13T10:49:54.679Z,22.36
2023-05-13T10:51:58.743Z,22.32
2023-05-13T10:52:58.742Z,22.23
2023-05-13T10:55:02.784Z,22.25
2023-05-13T10:56:02.734Z,22.28
2023-05-13T10:58:06.750Z,22.25
2023-05-13T10:59:06.746Z,22.23
2023-05-13T11:01:10.781Z,22.15
2023-05-13T11:02:10.725Z,22.04
2023-05-13T11:04:14.730Z,22.08
2023-05-13T11:05:14.727Z,22.08
2023-05-13T11:07:18.736Z,22.04
2023-05-13T11:08:18.721Z,22.02
2023-05-13T11:10:22.873Z,21.98
2023-05-13T11:11:22.779Z,22.00
2023-05-13T11:13:16.287Z,21.98
2023-05-13T11:14:15.865Z,22.00
2023-05-13T11:16:19.937Z,21.99
2023-05-13T11:17:19.861Z,21.91
2023-05-13T11:19:23.899Z,21.93
2023-05-13T11:20:23.926Z,21.92
2023-05-13T11:22:27.926Z,21.92
2023-05-13T11:23:27.905Z,21.88
2023-05-13T11:25:31.948Z,21.77
2023-05-13T11:26:31.944Z,21.73
2023-05-13T11:28:35.992Z,21.73
2023-05-13T11:29:35.959Z,21.72
2023-05-13T11:31:39.982Z,21.75
2023-05-13T11:32:39.974Z,21.70
2023-05-13T11:34:43.980Z,21.70
2023-05-13T11:35:43.949Z,21.69
2023-05-13T11:37:47.999Z,21.67
2023-05-13T11:38:47.985Z,21.75
2023-05-13T11:40:52.002Z,21.57
2023-05-13T11:41:52.015Z,21.73
2023-05-13T11:42:52.007Z,21.70
2023-05-13T11:43:52.023Z,21.61
2023-05-13T11:44:52.019Z,21.66
2023-05-13T11:45:52.028Z,21.66
2023-05-13T11:46:52.008Z,21.64
2023-05-13T11:47:52.125Z,21.69
2023-05-13T11:48:52.018Z,21.75
2023-05-13T11:49:52.052Z,21.72
2023-05-13T11:50:52.057Z,21.62
2023-05-13T11:51:52.018Z,21.67
2023-05-13T11:52:52.033Z,21.70
2023-05-13T11:53:52.026Z,21.69
2023-05-13T11:54:52.039Z,21.70
2023-05-13T11:55:52.040Z,21.76
2023-05-13T11:56:52.052Z,21.76
2023-05-13T11:57:52.053Z,21.80
2023-05-13T11:58:52.042Z,21.73
2023-05-13T11:59:52.058Z,21.60
2023-05-13T12:00:52.048Z,21.64
2023-05-13T12:01:52.089Z,21.72
2023-05-13T12:02:52.144Z,21.77
2023-05-13T12:03:52.055Z,21.72
2023-05-13T12:04:52.080Z,21.76
2023-05-13T12:05:52.065Z,21.80
2023-05-13T12:06:52.073Z,21.76
2023-05-13T12:07:52.065Z,21.72
2023-05-13T12:08:52.091Z,21.69
2023-05-13T12:09:52.080Z,21.72
2023-05-13T12:10:52.083Z,21.70
2023-05-13T12:11:52.081Z,21.76
2023-05-13T12:12:52.119Z,21.69
2023-05-13T12:13:52.094Z,21.62
2023-05-13T12:14:52.107Z,21.70
2023-05-13T12:15:52.149Z,21.70
2023-05-13T12:16:52.098Z,21.73
2023-05-13T12:17:52.116Z,21.72
2023-05-13T12:18:52.174Z,21.66
2023-05-13T12:19:52.121Z,21.70
2023-05-13T12:20:52.122Z,21.69
2023-05-13T12:21:52.114Z,21.67
2023-05-13T12:22:52.145Z,21.67
2023-05-13T12:23:52.119Z,21.60
2023-05-13T12:24:52.169Z,21.58
2023-05-13T12:25:52.119Z,21.80
2023-05-13T12:26:52.146Z,21.83
2023-05-13T12:27:52.154Z,21.77
2023-05-13T12:28:52.157Z,21.76
2023-05-13T12:29:52.140Z,21.88
2023-05-13T12:30:52.153Z,21.80
2023-05-13T12:31:52.235Z,21.85
2023-05-13T12:32:52.224Z,21.82
2023-05-13T12:33:52.163Z,21.92
2023-05-13T12:34:52.239Z,21.89
2023-05-13T12:35:52.172Z,21.95
2023-05-13T12:36:52.284Z,21.89
2023-05-13T12:37:52.328Z,21.93
2023-05-13T12:38:52.172Z,21.96
2023-05-13T12:39:52.169Z,21.92
2023-05-13T12:40:52.176Z,22.07
2023-05-13T12:41:52.167Z,22.04
2023-05-13T12:42:52.182Z,21.98
2023-05-13T12:43:52.300Z,21.98
2023-05-13T12:44:52.204Z,21.93
2023-05-13T12:45:52.255Z,21.99
2023-05-13T12:46:52.235Z,21.93
2023-05-13T12:47:52.235Z,21.95
2023-05-13T12:48:52.222Z,21.96
2023-05-13T12:49:52.228Z,21.91
2023-05-13T12:50:52.252Z,21.99
2023-05-13T12:51:52.243Z,22.02
2023-05-13T12:52:52.230Z,21.98
2023-05-13T12:53:52.390Z,22.07
2023-05-13T12:54:52.259Z,22.11
2023-05-13T12:55:52.225Z,22.10
2023-05-13T12:56:52.295Z,22.23
2023-05-13T12:57:52.285Z,22.15
2023-05-13T12:58:52.256Z,22.10
2023-05-13T12:59:52.230Z,22.14
2023-05-13T13:00:52.319Z,22.15
2023-05-13T13:01:52.296Z,22.23
2023-05-13T13:02:52.329Z,22.32
2023-05-13T13:03:52.391Z,22.33
2023-05-13T13:04:52.278Z,22.33
2023-05-13T13:05:52.252Z,22.26
2023-05-13T13:06:52.301Z,22.18
2023-05-13T13:07:52.311Z,22.28
2023-05-13T13:08:52.310Z,22.22
2023-05-13T13:09:52.302Z,22.18
2023-05-13T13:10:52.264Z,22.28
2023-05-13T13:11:52.325Z,22.22
2023-05-13T13:12:52.286Z,22.17
2023-05-13T13:13:52.338Z,22.17
2023-05-13T13:14:52.283Z,22.15
2023-05-13T13:15:52.329Z,21.99
2023-05-13T13:16:52.324Z,22.04
2023-05-13T13:17:52.431Z,22.08
2023-05-13T13:18:54.302Z,22.02
2023-05-13T13:19:52.306Z,21.95
2023-05-13T13:20:52.301Z,21.91
2023-05-13T13:21:52.317Z,21.89
2023-05-13T13:22:52.346Z,21.96
2023-05-13T13:23:52.321Z,21.93
2023-05-13T13:24:52.308Z,21.95
2023-05-13T13:25:52.323Z,21.98
2023-05-13T13:26:52.317Z,22.08
2023-05-13T13:27:52.505Z,22.04
2023-05-13T13:28:52.385Z,22.11
2023-05-13T13:29:52.368Z,22.06
2023-05-13T13:30:52.332Z,22.18
2023-05-13T13:31:52.394Z,22.13
2023-05-13T13:32:52.356Z,22.14
2023-05-13T13:33:52.395Z,22.20
2023-05-13T13:34:52.391Z,22.18
2023-05-13T13:35:52.421Z,22.17
2023-05-13T13:36:52.398Z,22.20
2023-05-13T13:37:52.363Z,22.18
2023-05-13T13:38:52.388Z,22.18
2023-05-13T13:39:52.388Z,22.18
2023-05-13T13:40:52.392Z,22.22
2023-05-13T13:41:52.396Z,22.14
2023-05-13T13:42:52.417Z,22.17
2023-05-13T13:43:52.408Z,22.15
2023-05-13T13:44:52.465Z,22.15
2023-05-13T13:45:52.460Z,22.25